createdAt,value
2023-03-06T00:00:50.016Z,50.852764
2023-03-06T00:01:49.964Z,50.852802
2023-03-06T00:02:49.962Z,50.852791
2023-03-06T00:03:50.016Z,50.852776
2023-03-06T00:04:49.951Z,50.852825
2023-03-06T00:05:50.036Z,50.852825
2023-03-06T00:06:49.964Z,50.852825
2023-03-06T00:07:49.934Z,50.852825
2023-03-06T00:08:49.933Z,50.852825
2023-03-06T00:09:49.914Z,50.852825
2023-03-06T00:10:49.934Z,50.852825
2023-03-06T00:11:49.933Z,50.852825
2023-03-06T00:12:49.904Z,50.852825
2023-03-06T00:13:49.908Z,50.852825
2023-03-06T00:14:49.905Z,50.852825
2023-03-06T00:15:49.958Z,50.852825
2023-03-06T00:16:49.902Z,50.852825
2023-03-06T00:17:49.878Z,50.852825
2023-03-06T00:18:49.869Z,50.852825
2023-03-06T00:19:49.867Z,50.852825
2023-03-06T00:20:49.862Z,50.852825
2023-03-06T00:22:56.863Z,50.852825
2023-03-06T00:23:49.838Z,50.852825
2023-03-06T00:24:49.835Z,50.852825
2023-03-06T00:25:49.835Z,50.852825
2023-03-06T00:26:49.847Z,50.852825
2023-03-06T00:27:49.830Z,50.852825
2023-03-06T00:28:49.805Z,50.852825
2023-03-06T00:29:49.807Z,50.852825
2023-03-06T00:30:49.796Z,50.852825
2023-03-06T00:31:49.921Z,50.852825
2023-03-06T00:32:49.832Z,50.852825
2023-03-06T00:33:49.800Z,50.852825
2023-03-06T00:34:49.772Z,50.852825
2023-03-06T00:35:49.837Z,50.852825
2023-03-06T00:36:49.772Z,50.852825
2023-03-06T00:37:49.750Z,50.852825
2023-03-06T00:38:49.772Z,50.852825
2023-03-06T00:39:49.747Z,50.852825
2023-03-06T00:40:49.740Z,50.852825
2023-03-06T00:41:49.734Z,50.852825
2023-03-06T00:42:49.759Z,50.852825
2023-03-06T00:43:49.712Z,50.852825
2023-03-06T00:44:49.743Z,50.852825
2023-03-06T00:45:49.710Z,50.852825
2023-03-06T00:46:49.700Z,50.852825
2023-03-06T00:47:49.703Z,50.852825
2023-03-06T00:48:49.700Z,50.852825
2023-03-06T00:49:49.677Z,50.852825
2023-03-06T00:50:49.703Z,50.852825
2023-03-06T00:51:49.717Z,50.852825
2023-03-06T00:52:49.674Z,50.852825
2023-03-06T00:53:49.659Z,50.852825
2023-03-06T00:54:49.659Z,50.852825
2023-03-06T00:55:49.645Z,50.852825
2023-03-06T00:56:49.631Z,50.852825
2023-03-06T00:57:49.668Z,50.852825
2023-03-06T00:58:49.629Z,50.852825
2023-03-06T00:59:49.634Z,50.852825
2023-03-06T01:00:49.647Z,50.852825
2023-03-06T01:01:49.659Z,50.852825
2023-03-06T01:02:49.597Z,50.852825
2023-03-06T01:03:49.641Z,50.852825
2023-03-06T01:04:49.602Z,50.852825
2023-03-06T01:05:49.601Z,50.852825
2023-03-06T01:06:49.584Z,50.852825
2023-03-06T01:07:49.575Z,50.852825
2023-03-06T01:08:49.581Z,50.852825
2023-03-06T01:09:49.598Z,50.852825
2023-03-06T01:10:49.564Z,50.852825
2023-03-06T01:11:49.557Z,50.852825
2023-03-06T01:12:49.616Z,50.852825
2023-03-06T01:13:49.526Z,50.852825
2023-03-06T01:14:49.521Z,50.852825
2023-03-06T01:15:49.515Z,50.852825
2023-03-06T01:16:49.512Z,50.852825
2023-03-06T01:17:49.507Z,50.852825
2023-03-06T01:18:49.528Z,50.852825
2023-03-06T01:19:49.488Z,50.852825
2023-03-06T01:20:49.478Z,50.852825
2023-03-06T01:21:49.527Z,50.852825
2023-03-06T01:22:49.474Z,50.852825
2023-03-06T01:23:49.469Z,50.852825
2023-03-06T01:24:49.459Z,50.852825
2023-03-06T01:25:49.458Z,50.852825
2023-03-06T01:26:49.446Z,50.852825
2023-03-06T01:27:49.447Z,50.852825
2023-03-06T01:28:49.439Z,50.852825
2023-03-06T01:29:49.451Z,50.852825
2023-03-06T01:30:49.437Z,50.852825
2023-03-06T01:31:49.420Z,50.852825
2023-03-06T01:32:49.411Z,50.852825
2023-03-06T01:33:49.392Z,50.852695
2023-03-06T01:34:49.441Z,50.852768
2023-03-06T01:35:49.448Z,50.852776
2023-03-06T01:36:49.397Z,50.852795
2023-03-06T01:37:49.401Z,50.852722
2023-03-06T01:38:49.369Z,50.852829
2023-03-06T01:39:49.376Z,50.852833
2023-03-06T01:40:49.364Z,50.852901
2023-03-06T01:41:49.347Z,50.852718
2023-03-06T01:42:49.354Z,50.852673
2023-03-06T01:43:49.385Z,50.852818
2023-03-06T01:44:49.333Z,50.852680
2023-03-06T01:45:49.414Z,50.852806
2023-03-06T01:46:49.317Z,50.852772
2023-03-06T01:47:49.323Z,50.852802
2023-03-06T01:48:49.335Z,50.852791
2023-03-06T01:49:49.302Z,50.852833
2023-03-06T01:50:49.290Z,50.852806
2023-03-06T01:51:49.326Z,50.852768
2023-03-06T01:52:49.268Z,50.852791
2023-03-06T01:53:49.266Z,50.852814
2023-03-06T01:54:49.280Z,50.852844
2023-03-06T01:55:49.248Z,50.852802
2023-03-06T01:56:49.245Z,50.852833
2023-03-06T01:57:49.237Z,50.852829
2023-03-06T01:58:49.250Z,50.852837
2023-03-06T01:59:49.227Z,50.852783
2023-03-06T02:00:49.330Z,50.852760
2023-03-06T02:01:49.213Z,50.852764
2023-03-06T02:02:49.226Z,50.852791
2023-03-06T02:03:49.211Z,50.852791
2023-03-06T02:04:49.195Z,50.852894
2023-03-06T02:05:49.198Z,50.852848
2023-03-06T02:06:49.192Z,50.852848
2023-03-06T02:07:49.194Z,50.852833
2023-03-06T02:08:49.188Z,50.852749
2023-03-06T02:09:49.160Z,50.852810
2023-03-06T02:10:49.174Z,50.852859
2023-03-06T02:11:49.242Z,50.852856
2023-03-06T02:12:49.154Z,50.852798
2023-03-06T02:13:49.148Z,50.852810
2023-03-06T02:14:49.145Z,50.852737
2023-03-06T02:15:49.141Z,50.852715
2023-03-06T02:16:49.192Z,50.852760
2023-03-06T02:17:49.140Z,50.852779
2023-03-06T02:18:49.107Z,50.852829
2023-03-06T02:19:49.098Z,50.852795
2023-03-06T02:20:49.107Z,50.852810
2023-03-06T02:21:49.088Z,50.852856
2023-03-06T02:22:49.077Z,50.852787
2023-03-06T02:23:49.089Z,50.852879
2023-03-06T02:24:49.063Z,50.852829
2023-03-06T02:25:49.060Z,50.852760
2023-03-06T02:26:49.068Z,50.852814
2023-03-06T02:27:49.055Z,50.852623
2023-03-06T02:28:49.058Z,50.852859
2023-03-06T02:29:49.028Z,50.852619
2023-03-06T02:30:49.100Z,50.852604
2023-03-06T02:31:49.014Z,50.852715
2023-03-06T02:32:49.009Z,50.852936
2023-03-06T02:33:49.030Z,50.852837
2023-03-06T02:34:48.997Z,50.852760
2023-03-06T02:35:49.008Z,50.852768
2023-03-06T02:36:49.021Z,50.852951
2023-03-06T02:37:48.990Z,50.852680
2023-03-06T02:38:48.997Z,50.852589
2023-03-06T02:39:48.975Z,50.852589
2023-03-06T02:40:48.969Z,50.852589
2023-03-06T02:41:48.965Z,50.852589
2023-03-06T02:42:48.977Z,50.852589
2023-03-06T02:43:48.956Z,50.852589
2023-03-06T02:44:48.936Z,50.852589
2023-03-06T02:45:49.019Z,50.852589
2023-03-06T02:46:48.922Z,50.852589
2023-03-06T02:47:48.920Z,50.853153
2023-03-06T02:48:48.909Z,50.853153
2023-03-06T02:49:48.915Z,50.853153
2023-03-06T02:50:48.905Z,50.853153
2023-03-06T02:51:48.886Z,50.853153
2023-03-06T02:52:48.876Z,50.853153
2023-03-06T02:53:48.886Z,50.853153
2023-03-06T02:54:48.876Z,50.853153
2023-03-06T02:55:48.867Z,50.853153
2023-03-06T02:56:48.856Z,50.853153
2023-03-06T02:57:48.865Z,50.853153
2023-03-06T02:58:48.838Z,50.853153
2023-03-06T02:59:48.836Z,50.853153
2023-03-06T03:00:48.817Z,50.853153
2023-03-06T03:01:48.918Z,50.853153
2023-03-06T03:02:48.833Z,50.853153
2023-03-06T03:03:48.810Z,50.853153
2023-03-06T03:04:48.841Z,50.853153
2023-03-06T03:05:48.779Z,50.853153
2023-03-06T03:06:48.813Z,50.853153
2023-03-06T03:07:48.772Z,50.853153
2023-03-06T03:08:48.792Z,50.853153
2023-03-06T03:09:48.786Z,50.852985
2023-03-06T03:10:48.755Z,50.852982
2023-03-06T03:11:48.737Z,50.852894
2023-03-06T03:12:48.738Z,50.853085
2023-03-06T03:13:48.727Z,50.853085
2023-03-06T03:14:48.735Z,50.852921
2023-03-06T03:15:48.791Z,50.852848
2023-03-06T03:16:48.715Z,50.852749
2023-03-06T03:17:48.704Z,50.852749
2023-03-06T03:18:48.705Z,50.852749
2023-03-06T03:19:48.689Z,50.852749
2023-03-06T03:20:48.715Z,50.852749
2023-03-06T03:21:48.680Z,50.852573
2023-03-06T03:22:48.680Z,50.852516
2023-03-06T03:23:48.682Z,50.852993
2023-03-06T03:24:48.686Z,50.853085
2023-03-06T03:25:48.646Z,50.853016
2023-03-06T03:26:48.675Z,50.852901
2023-03-06T03:27:48.650Z,50.852882
2023-03-06T03:28:48.642Z,50.852737
2023-03-06T03:29:48.634Z,50.852570
2023-03-06T03:30:48.675Z,50.852562
2023-03-06T03:31:48.643Z,50.852444
2023-03-06T03:32:48.638Z,50.852711
2023-03-06T03:33:48.616Z,50.852711
2023-03-06T03:34:48.610Z,50.852814
2023-03-06T03:35:48.657Z,50.852573
2023-03-06T03:36:48.606Z,50.852631
2023-03-06T03:37:48.607Z,50.852642
2023-03-06T03:38:48.582Z,50.852669
2023-03-06T03:39:48.568Z,50.852669
2023-03-06T03:40:48.560Z,50.852711
2023-03-06T03:41:48.564Z,50.852470
2023-03-06T03:42:48.557Z,50.852470
2023-03-06T03:43:48.552Z,50.852470
2023-03-06T03:44:48.554Z,50.852798
2023-03-06T03:45:48.517Z,50.852753
2023-03-06T03:46:48.584Z,50.852753
2023-03-06T03:47:48.556Z,50.852753
2023-03-06T03:48:48.511Z,50.852753
2023-03-06T03:49:48.496Z,50.852551
2023-03-06T03:50:48.491Z,50.852581
2023-03-06T03:51:48.482Z,50.852707
2023-03-06T03:52:48.486Z,50.852776
2023-03-06T03:53:48.484Z,50.852829
2023-03-06T03:54:48.481Z,50.852840
2023-03-06T03:55:48.470Z,50.852917
2023-03-06T03:56:48.454Z,50.852962
2023-03-06T03:57:48.459Z,50.852974
2023-03-06T03:58:48.464Z,50.853096
2023-03-06T03:59:48.425Z,50.852692
2023-03-06T04:00:48.428Z,50.852676
2023-03-06T04:01:48.472Z,50.852753
2023-03-06T04:02:48.425Z,50.852737
2023-03-06T04:03:48.423Z,50.852802
2023-03-06T04:04:48.401Z,50.852795
2023-03-06T04:05:48.428Z,50.852859
2023-03-06T04:06:48.372Z,50.852833
2023-03-06T04:07:48.375Z,50.852802
2023-03-06T04:08:48.370Z,50.852821
2023-03-06T04:09:48.357Z,50.852886
2023-03-06T04:10:48.367Z,50.852848
2023-03-06T04:11:48.346Z,50.852833
2023-03-06T04:12:48.349Z,50.852745
2023-03-06T04:13:48.328Z,50.852737
2023-03-06T04:14:48.316Z,50.852829
2023-03-06T04:15:48.330Z,50.852768
2023-03-06T04:16:48.312Z,50.852821
2023-03-06T04:17:48.307Z,50.852791
2023-03-06T04:18:48.302Z,50.852749
2023-03-06T04:19:48.287Z,50.852707
2023-03-06T04:20:48.300Z,50.852634
2023-03-06T04:21:48.277Z,50.852470
2023-03-06T04:22:48.274Z,50.852554
2023-03-06T04:23:48.278Z,50.852558
2023-03-06T04:24:48.257Z,50.852631
2023-03-06T04:25:48.248Z,50.852730
2023-03-06T04:26:48.250Z,50.852684
2023-03-06T04:27:48.238Z,50.852776
2023-03-06T04:28:48.247Z,50.852737
2023-03-06T04:29:48.223Z,50.852711
2023-03-06T04:30:48.244Z,50.852673
2023-03-06T04:31:48.246Z,50.852654
2023-03-06T04:32:48.205Z,50.852730
2023-03-06T04:33:48.236Z,50.852737
2023-03-06T04:34:48.198Z,50.852734
2023-03-06T04:35:48.232Z,50.852882
2023-03-06T04:36:48.183Z,50.852802
2023-03-06T04:37:48.184Z,50.852798
2023-03-06T04:38:48.211Z,50.852840
2023-03-06T04:39:48.176Z,50.852905
2023-03-06T04:40:48.156Z,50.852749
2023-03-06T04:41:48.155Z,50.852749
2023-03-06T04:42:48.140Z,50.852825
2023-03-06T04:43:48.161Z,50.852814
2023-03-06T04:44:48.129Z,50.852867
2023-03-06T04:45:48.165Z,50.852871
2023-03-06T04:46:48.123Z,50.852795
2023-03-06T04:47:48.117Z,50.852768
2023-03-06T04:48:48.113Z,50.852737
2023-03-06T04:49:48.117Z,50.852776
2023-03-06T04:50:48.087Z,50.852985
2023-03-06T04:51:48.097Z,50.852711
2023-03-06T04:52:48.075Z,50.852623
2023-03-06T04:53:48.075Z,50.852573
2023-03-06T04:54:48.114Z,50.852718
2023-03-06T04:55:48.061Z,50.852779
2023-03-06T04:56:48.050Z,50.852810
2023-03-06T04:57:48.062Z,50.853065
2023-03-06T04:58:48.041Z,50.852684
2023-03-06T04:59:48.058Z,50.852776
2023-03-06T05:00:48.037Z,50.852745
2023-03-06T05:01:48.046Z,50.852818
2023-03-06T05:02:48.030Z,50.852863
2023-03-06T05:03:48.006Z,50.852821
2023-03-06T05:04:48.000Z,50.852730
2023-03-06T05:05:48.016Z,50.852859
2023-03-06T05:06:47.982Z,50.852428
2023-03-06T05:07:47.981Z,50.853058
2023-03-06T05:08:47.984Z,50.852936
2023-03-06T05:09:47.971Z,50.853153
2023-03-06T05:10:47.963Z,50.853153
2023-03-06T05:11:47.975Z,50.853153
2023-03-06T05:12:47.945Z,50.853153
2023-03-06T05:13:47.961Z,50.853153
2023-03-06T05:14:48.186Z,50.853153
2023-03-06T05:15:47.923Z,50.853153
2023-03-06T05:16:47.960Z,50.853153
2023-03-06T05:17:47.949Z,50.853153
2023-03-06T05:18:50.465Z,50.853153
2023-03-06T05:19:47.910Z,50.853153
2023-03-06T05:20:47.902Z,50.853153
2023-03-06T05:21:47.883Z,50.853153
2023-03-06T05:22:47.909Z,50.853153
2023-03-06T05:23:47.869Z,50.853153
2023-03-06T05:24:47.877Z,50.853153
2023-03-06T05:25:47.856Z,50.853153
2023-03-06T05:26:47.855Z,50.853153
2023-03-06T05:27:47.845Z,50.853153
2023-03-06T05:28:47.868Z,50.853153
2023-03-06T05:29:47.870Z,50.853153
2023-03-06T05:30:47.831Z,50.853153
2023-03-06T05:31:47.871Z,50.852932
2023-03-06T05:32:47.924Z,50.852932
2023-03-06T05:33:47.853Z,50.853268
2023-03-06T05:34:47.830Z,50.853031
2023-03-06T05:35:47.874Z,50.852955
2023-03-06T05:36:47.827Z,50.852955
2023-03-06T05:37:47.796Z,50.852955
2023-03-06T05:38:47.779Z,50.852955
2023-03-06T05:39:47.769Z,50.852955
2023-03-06T05:40:47.784Z,50.852955
2023-03-06T05:41:47.767Z,50.852955
2023-03-06T05:42:47.777Z,50.852955
2023-03-06T05:43:47.767Z,50.852955
2023-03-06T05:44:47.761Z,50.852955
2023-03-06T05:45:47.784Z,50.852955
2023-03-06T05:46:47.760Z,50.852955
2023-03-06T05:47:47.756Z,50.852955
2023-03-06T05:48:47.739Z,50.852955
2023-03-06T05:49:47.716Z,50.852955
2023-03-06T05:50:47.738Z,50.852955
2023-03-06T05:51:47.741Z,50.852955
2023-03-06T05:52:47.707Z,50.852955
2023-03-06T05:53:47.704Z,50.852955
2023-03-06T05:54:47.695Z,50.852955
2023-03-06T05:55:47.679Z,50.852955
2023-03-06T05:56:47.687Z,50.852955
2023-03-06T05:57:47.689Z,50.852955
2023-03-06T05:58:47.683Z,50.852955
2023-03-06T05:59:47.664Z,50.852955
2023-03-06T06:00:47.658Z,50.852955
2023-03-06T06:01:47.669Z,50.852955
2023-03-06T06:02:47.640Z,50.853188
2023-03-06T06:03:47.665Z,50.853264
2023-03-06T06:04:47.621Z,50.853191
2023-03-06T06:05:47.621Z,50.853188
2023-03-06T06:06:47.634Z,50.853016
2023-03-06T06:07:47.603Z,50.852821
2023-03-06T06:08:47.596Z,50.852856
2023-03-06T06:09:47.588Z,50.852856
2023-03-06T06:10:47.591Z,50.852882
2023-03-06T06:11:47.565Z,50.852734
2023-03-06T06:12:47.564Z,50.852741
2023-03-06T06:13:47.573Z,50.852741
2023-03-06T06:14:47.550Z,50.852722
2023-03-06T06:15:47.567Z,50.852665
2023-03-06T06:16:47.562Z,50.852665
2023-03-06T06:17:47.533Z,50.852688
2023-03-06T06:18:47.545Z,50.852829
2023-03-06T06:19:47.524Z,50.852695
2023-03-06T06:20:47.507Z,50.852673
2023-03-06T06:21:47.499Z,50.852673
2023-03-06T06:22:47.548Z,50.852673
2023-03-06T06:23:54.519Z,50.852459
2023-03-06T06:24:47.499Z,50.852634
2023-03-06T06:25:47.489Z,50.852844
2023-03-06T06:26:47.475Z,50.852844
2023-03-06T06:27:47.480Z,50.852951
2023-03-06T06:28:47.485Z,50.852951
2023-03-06T06:29:47.463Z,50.852863
2023-03-06T06:30:47.475Z,50.852863
2023-03-06T06:31:47.446Z,50.852863
2023-03-06T06:32:47.466Z,50.852863
2023-03-06T06:33:47.439Z,50.852863
2023-03-06T06:34:47.461Z,50.852863
2023-03-06T06:35:47.438Z,50.852863
2023-03-06T06:36:47.426Z,50.852863
2023-03-06T06:37:47.410Z,50.852863
2023-03-06T06:38:47.407Z,50.852863
2023-03-06T06:39:47.396Z,50.852863
2023-03-06T06:41:19.017Z,50.852863
2023-03-06T06:41:59.754Z,50.852863
2023-03-06T06:42:48.398Z,50.852863
2023-03-06T06:43:47.370Z,50.852951
2023-03-06T06:44:47.374Z,50.853001
2023-03-06T06:45:48.955Z,50.852852
2023-03-06T06:47:21.331Z,50.852867
2023-03-06T06:47:48.364Z,50.853043
2023-03-06T06:48:47.355Z,50.852951
2023-03-06T06:49:47.391Z,50.852932
2023-03-06T06:50:47.330Z,50.852818
2023-03-06T06:51:47.329Z,50.852928
2023-03-06T06:52:47.317Z,50.852806
2023-03-06T06:53:47.314Z,50.852917
2023-03-06T06:54:47.334Z,50.852905
2023-03-06T06:55:47.295Z,50.852764
2023-03-06T06:56:47.299Z,50.852940
2023-03-06T06:57:47.292Z,50.852768
2023-03-06T06:58:47.283Z,50.852959
2023-03-06T06:59:47.280Z,50.852890
2023-03-06T07:00:47.269Z,50.852890
2023-03-06T07:01:47.301Z,50.852890
2023-03-06T07:02:47.271Z,50.852890
2023-03-06T07:03:47.266Z,50.852890
2023-03-06T07:05:02.623Z,50.852890
2023-03-06T07:05:48.239Z,50.852879
2023-03-06T07:06:47.228Z,50.852753
2023-03-06T07:07:47.243Z,50.852631
2023-03-06T07:08:47.217Z,50.852692
2023-03-06T07:09:47.213Z,50.852684
2023-03-06T07:10:47.209Z,50.852654
2023-03-06T07:11:47.206Z,50.852657
2023-03-06T07:12:47.219Z,50.852703
2023-03-06T07:13:47.209Z,50.852757
2023-03-06T07:14:47.184Z,50.852829
2023-03-06T07:15:47.188Z,50.852856
2023-03-06T07:16:47.167Z,50.852749
2023-03-06T07:17:49.564Z,50.852871
2023-03-06T07:18:47.171Z,50.852814
2023-03-06T07:19:47.152Z,50.852695
2023-03-06T07:20:47.175Z,50.852684
2023-03-06T07:21:47.156Z,50.852718
2023-03-06T07:22:51.233Z,50.852703
2023-03-06T07:23:47.139Z,50.852715
2023-03-06T07:24:47.137Z,50.852757
2023-03-06T07:25:47.113Z,50.852657
2023-03-06T07:26:47.111Z,50.852615
2023-03-06T07:27:53.360Z,50.852726
2023-03-06T07:28:52.654Z,50.852608
2023-03-06T07:29:47.100Z,50.852589
2023-03-06T07:30:47.085Z,50.852760
2023-03-06T07:31:47.071Z,50.852768
2023-03-06T07:32:47.075Z,50.852757
2023-03-06T07:33:47.064Z,50.852741
2023-03-06T07:34:47.073Z,50.852768
2023-03-06T07:35:47.052Z,50.852787
2023-03-06T07:36:47.067Z,50.852749
2023-03-06T07:37:47.053Z,50.852810
2023-03-06T07:38:47.034Z,50.852814
2023-03-06T07:39:47.061Z,50.852741
2023-03-06T07:40:47.030Z,50.852814
2023-03-06T07:41:47.039Z,50.852734
2023-03-06T07:42:47.017Z,50.852783
2023-03-06T07:43:47.001Z,50.852749
2023-03-06T07:44:47.029Z,50.852814
2023-03-06T07:45:47.019Z,50.852837
2023-03-06T07:46:47.068Z,50.852768
2023-03-06T07:47:46.984Z,50.852772
2023-03-06T07:48:46.970Z,50.852772
2023-03-06T07:49:46.966Z,50.852776
2023-03-06T07:50:46.968Z,50.852802
2023-03-06T07:51:46.967Z,50.852535
2023-03-06T07:52:46.976Z,50.852779
2023-03-06T07:53:46.942Z,50.852917
2023-03-06T07:54:46.935Z,50.852844
2023-03-06T07:55:46.932Z,50.852802
2023-03-06T07:56:46.922Z,50.852718
2023-03-06T07:57:46.938Z,50.852814
2023-03-06T07:58:46.925Z,50.852848
2023-03-06T07:59:46.905Z,50.852886
2023-03-06T08:00:46.903Z,50.852768
2023-03-06T08:01:46.890Z,50.852722
2023-03-06T08:02:46.924Z,50.852787
2023-03-06T08:03:46.976Z,50.852779
2023-03-06T08:04:46.888Z,50.852783
2023-03-06T08:05:46.884Z,50.852798
2023-03-06T08:06:46.878Z,50.852814
2023-03-06T08:07:46.853Z,50.852913
2023-03-06T08:08:46.862Z,50.852886
2023-03-06T08:09:46.876Z,50.852768
2023-03-06T08:10:46.838Z,50.852795
2023-03-06T08:11:46.826Z,50.852623
2023-03-06T08:12:46.822Z,50.852768
2023-03-06T08:13:46.825Z,50.852818
2023-03-06T08:14:46.825Z,50.852837
2023-03-06T08:15:46.797Z,50.852753
2023-03-06T08:16:46.802Z,50.852699
2023-03-06T08:17:46.805Z,50.852825
2023-03-06T08:18:46.807Z,50.852772
2023-03-06T08:19:46.807Z,50.852867
2023-03-06T08:20:46.774Z,50.852810
2023-03-06T08:21:46.763Z,50.852802
2023-03-06T08:22:46.751Z,50.852821
2023-03-06T08:23:46.760Z,50.852837
2023-03-06T08:24:46.744Z,50.852829
2023-03-06T08:25:46.739Z,50.852825
2023-03-06T08:26:46.752Z,50.852818
2023-03-06T08:27:46.732Z,50.852859
2023-03-06T08:28:46.774Z,50.852806
2023-03-06T08:29:46.729Z,50.852829
2023-03-06T08:30:46.710Z,50.852856
2023-03-06T08:31:46.733Z,50.852844
2023-03-06T08:32:46.705Z,50.852795
2023-03-06T08:33:46.692Z,50.852814
2023-03-06T08:34:46.717Z,50.852837
2023-03-06T08:35:46.698Z,50.852779
2023-03-06T08:36:46.678Z,50.852867
2023-03-06T08:37:46.668Z,50.852764
2023-03-06T08:38:46.696Z,50.852749
2023-03-06T08:39:46.660Z,50.852753
2023-03-06T08:40:46.687Z,50.852810
2023-03-06T08:41:46.656Z,50.852840
2023-03-06T08:42:46.653Z,50.852768
2023-03-06T08:43:46.648Z,50.852726
2023-03-06T08:44:46.628Z,50.852795
2023-03-06T08:45:46.636Z,50.852810
2023-03-06T08:46:46.633Z,50.852867
2023-03-06T08:47:46.616Z,50.852875
2023-03-06T08:48:46.621Z,50.852852
2023-03-06T08:49:46.625Z,50.852859
2023-03-06T08:50:46.600Z,50.852802
2023-03-06T08:51:46.584Z,50.852737
2023-03-06T08:52:46.578Z,50.852787
2023-03-06T08:53:46.566Z,50.852898
2023-03-06T08:54:46.574Z,50.852741
2023-03-06T08:55:46.569Z,50.852764
2023-03-06T08:56:46.546Z,50.852627
2023-03-06T08:57:46.544Z,50.852734
2023-03-06T08:58:46.555Z,50.852837
2023-03-06T08:59:46.583Z,50.852898
2023-03-06T09:00:46.663Z,50.852783
2023-03-06T09:01:46.551Z,50.852684
2023-03-06T09:02:46.528Z,50.852676
2023-03-06T09:03:46.507Z,50.852741
2023-03-06T09:04:46.522Z,50.852806
2023-03-06T09:05:46.493Z,50.852890
2023-03-06T09:06:46.512Z,50.852879
2023-03-06T09:07:46.496Z,50.852798
2023-03-06T09:08:46.498Z,50.852726
2023-03-06T09:09:46.519Z,50.852665
2023-03-06T09:10:46.555Z,50.852715
2023-03-06T09:11:46.477Z,50.852734
2023-03-06T09:12:50.894Z,50.852757
2023-03-06T09:13:47.451Z,50.852745
2023-03-06T09:14:46.433Z,50.852753
2023-03-06T09:15:46.432Z,50.852734
2023-03-06T09:16:46.467Z,50.852753
2023-03-06T09:17:46.457Z,50.852776
2023-03-06T09:18:46.445Z,50.852661
2023-03-06T09:19:46.412Z,50.852768
2023-03-06T09:20:46.402Z,50.852741
2023-03-06T09:21:46.395Z,50.852734
2023-03-06T09:22:46.398Z,50.852798
2023-03-06T09:23:46.391Z,50.852802
2023-03-06T09:24:46.406Z,50.852741
2023-03-06T09:25:46.386Z,50.852654
2023-03-06T09:26:47.644Z,50.852688
2023-03-06T09:27:46.367Z,50.852543
2023-03-06T09:28:46.361Z,50.852531
2023-03-06T09:29:46.344Z,50.852695
2023-03-06T09:30:46.410Z,50.852673
2023-03-06T09:31:46.338Z,50.852753
2023-03-06T09:32:46.325Z,50.852654
2023-03-06T09:33:46.346Z,50.852657
2023-03-06T09:34:46.340Z,50.852699
2023-03-06T09:35:46.333Z,50.852776
2023-03-06T09:36:56.735Z,50.852718
2023-03-06T09:37:46.299Z,50.852665
2023-03-06T09:38:46.294Z,50.852642
2023-03-06T09:39:46.280Z,50.852680
2023-03-06T09:40:46.287Z,50.852642
2023-03-06T09:41:46.295Z,50.852673
2023-03-06T09:42:46.273Z,50.852711
2023-03-06T09:43:46.264Z,50.852711
2023-03-06T09:44:46.254Z,50.852676
2023-03-06T09:45:46.288Z,50.852676
2023-03-06T09:46:46.248Z,50.852718
2023-03-06T09:47:46.251Z,50.852699
2023-03-06T09:48:46.228Z,50.852715
2023-03-06T09:49:46.229Z,50.852715
2023-03-06T09:50:46.226Z,50.852833
2023-03-06T09:51:46.215Z,50.852722
2023-03-06T09:52:46.236Z,50.852673
2023-03-06T09:53:46.202Z,50.852825
2023-03-06T09:54:46.205Z,50.852779
2023-03-06T09:55:46.192Z,50.852787
2023-03-06T09:56:46.199Z,50.852722
2023-03-06T09:57:46.189Z,50.852757
2023-03-06T09:58:46.167Z,50.852684
2023-03-06T09:59:46.174Z,50.852604
2023-03-06T10:00:46.175Z,50.852837
2023-03-06T10:01:46.150Z,50.852779
2023-03-06T10:02:46.288Z,50.852718
2023-03-06T10:03:46.141Z,50.852711
2023-03-06T10:04:46.210Z,50.852726
2023-03-06T10:05:46.132Z,50.852688
2023-03-06T10:06:46.148Z,50.852688
2023-03-06T10:07:46.130Z,50.852619
2023-03-06T10:08:46.109Z,50.852634
2023-03-06T10:09:46.118Z,50.852627
2023-03-06T10:10:46.132Z,50.852680
2023-03-06T10:11:46.098Z,50.852726
2023-03-06T10:12:46.111Z,50.852661
2023-03-06T10:13:46.090Z,50.852741
2023-03-06T10:14:49.004Z,50.852753
2023-03-06T10:15:46.122Z,50.852737
2023-03-06T10:16:46.085Z,50.852745
2023-03-06T10:17:46.086Z,50.852753
2023-03-06T10:18:46.078Z,50.852764
2023-03-06T10:19:46.058Z,50.852814
2023-03-06T10:20:46.079Z,50.852772
2023-03-06T10:21:46.056Z,50.852791
2023-03-06T10:22:55.389Z,50.852802
2023-03-06T10:23:47.054Z,50.852802
2023-03-06T10:24:46.031Z,50.852802
2023-03-06T10:25:46.028Z,50.852791
2023-03-06T10:26:46.122Z,50.852814
2023-03-06T10:27:46.020Z,50.852825
2023-03-06T10:28:46.027Z,50.852802
2023-03-06T10:30:01.196Z,50.852791
2023-03-06T10:30:47.036Z,50.852840
2023-03-06T10:31:46.006Z,50.852833
2023-03-06T10:32:49.048Z,50.852844
2023-03-06T10:33:45.982Z,50.852894
2023-03-06T10:34:45.977Z,50.852867
2023-03-06T10:35:46.046Z,50.852833
2023-03-06T10:36:45.964Z,50.852680
2023-03-06T10:37:45.978Z,50.852863
2023-03-06T10:38:45.990Z,50.852821
2023-03-06T10:39:45.957Z,50.852867
2023-03-06T10:40:45.943Z,50.852833
2023-03-06T10:41:46.271Z,50.852867
2023-03-06T10:42:45.929Z,50.852680
2023-03-06T10:43:45.921Z,50.852806
2023-03-06T10:44:45.953Z,50.852806
2023-03-06T10:45:49.258Z,50.852654
2023-03-06T10:46:45.946Z,50.852718
2023-03-06T10:47:45.897Z,50.852657
2023-03-06T10:48:45.901Z,50.852585
2023-03-06T10:49:45.897Z,50.852528
2023-03-06T10:50:45.881Z,50.852726
2023-03-06T10:51:45.887Z,50.852852
2023-03-06T10:52:45.861Z,50.852852
2023-03-06T10:53:45.864Z,50.852852
2023-03-06T10:54:45.857Z,50.852852
2023-03-06T10:55:45.862Z,50.852852
2023-03-06T10:56:45.855Z,50.852852
2023-03-06T10:57:45.850Z,50.852852
2023-03-06T10:58:45.842Z,50.852852
2023-03-06T10:59:45.822Z,50.852852
2023-03-06T11:00:45.822Z,50.852852
2023-03-06T11:01:45.896Z,50.852852
2023-03-06T11:02:45.816Z,50.852814
2023-03-06T11:03:45.795Z,50.852596
2023-03-06T11:04:45.873Z,50.852489
2023-03-06T11:05:45.780Z,50.852699
2023-03-06T11:06:45.808Z,50.852669
2023-03-06T11:07:45.785Z,50.852619
2023-03-06T11:08:45.765Z,50.852619
2023-03-06T11:09:45.761Z,50.852619
2023-03-06T11:10:45.755Z,50.852619
2023-03-06T11:11:45.759Z,50.852619
2023-03-06T11:12:45.741Z,50.852619
2023-03-06T11:13:45.755Z,50.852619
2023-03-06T11:14:45.732Z,50.852619
2023-03-06T11:15:45.759Z,50.852619
2023-03-06T11:16:45.719Z,50.852669
2023-03-06T11:17:45.712Z,50.852665
2023-03-06T11:18:45.732Z,50.852627
2023-03-06T11:19:45.705Z,50.852623
2023-03-06T11:20:51.842Z,50.852589
2023-03-06T11:21:46.692Z,50.852589
2023-03-06T11:22:47.532Z,50.852589
2023-03-06T11:23:45.693Z,50.852589
2023-03-06T11:24:45.679Z,50.852589
2023-03-06T11:25:45.660Z,50.852589